Time;durP1;ratioP1;P1;durP2;ratioP2;P2;SDS_P1;SDS_P2;PMS_P1;PMS_P2;Temp;Humidity;BMP_temperature;BMP_pressure;BME280_temperature;BME280_humidity;BME280_pressure;Samples;Min_cycle;Max_cycle;Signal;HPM_P1;HPM_P2
2023/01/09 00:02:02;;;;;;;;;;;7.60;99.90;;;;;;5062468;28;19909;-73
2023/01/09 00:04:28;;;;;;;;;;;7.60;99.90;;;;;;5070489;28;19924;-73
2023/01/09 00:06:53;;;;;;;;;;;7.50;99.90;;;;;;5064541;28;19917;-75
2023/01/09 00:09:20;;;;;;;;;;;7.50;99.90;;;;;;5057155;28;19928;-74
2023/01/09 00:11:46;;;;;;;;;;;7.50;99.90;;;;;;5057871;28;19919;-75
2023/01/09 00:14:12;;;;;;;;;;;7.50;99.90;;;;;;5060679;28;19921;-75
2023/01/09 00:16:38;;;;;;;;;;;7.50;99.90;;;;;;5063375;28;19940;-75
2023/01/09 00:19:03;;;;;;;;;;;7.50;99.90;;;;;;5059197;28;19920;-74
2023/01/09 00:21:29;;;;;;;;;;;7.40;99.90;;;;;;5057083;28;19909;-74
2023/01/09 00:23:54;;;;;;;;;;;7.40;99.90;;;;;;5055413;28;19917;-74
2023/01/09 00:26:20;;;;;;;;;;;7.40;99.90;;;;;;5057817;28;19956;-74
2023/01/09 00:28:46;;;;;;;;;;;7.40;99.90;;;;;;5055653;28;19966;-76
2023/01/09 00:31:12;;;;;;;;;;;7.40;99.90;;;;;;5057878;28;19913;-72
2023/01/09 00:33:42;;;;;;;;;;;7.30;99.90;;;;;;5057403;28;19939;-75
2023/01/09 00:36:07;;;;;;;;;;;7.40;99.90;;;;;;5058327;28;20034;-73
2023/01/09 00:38:33;;;;;;;;;;;7.40;99.90;;;;;;5052741;28;19944;-74
2023/01/09 00:40:59;;;;;;;;;;;7.30;99.90;;;;;;5049137;28;19917;-73
2023/01/09 00:43:27;;;;;;;;;;;7.30;99.90;;;;;;5047954;28;20012;-74
2023/01/09 00:45:53;;;;;;;;;;;7.30;99.90;;;;;;5040792;28;20028;-73
2023/01/09 00:48:25;;;;;;;;;;;7.30;99.90;;;;;;5043624;28;19971;-73
2023/01/09 00:50:51;;;;;;;;;;;7.30;99.90;;;;;;5043324;28;19917;-73
2023/01/09 00:53:18;;;;;;;;;;;7.30;99.90;;;;;;5053586;28;19909;-74
2023/01/09 00:55:43;;;;;;;;;;;7.30;99.90;;;;;;5039266;28;19981;-74
2023/01/09 00:58:09;;;;;;;;;;;7.30;99.90;;;;;;5059389;28;19952;-72
2023/01/09 01:00:35;;;;;;;;;;;7.30;99.90;;;;;;5060790;28;19913;-75
2023/01/09 01:03:00;;;;;;;;;;;7.30;99.90;;;;;;5062000;28;19924;-74
2023/01/09 01:08:10;;;;;;;;;;;7.30;99.90;;;;;;5057377;28;20255;-74
2023/01/09 01:10:36;;;;;;;;;;;7.30;99.90;;;;;;5051063;28;19913;-75
2023/01/09 01:13:01;;;;;;;;;;;7.20;99.90;;;;;;5056359;28;19916;-73
2023/01/09 01:15:28;;;;;;;;;;;7.30;99.90;;;;;;5055873;28;19948;-75
2023/01/09 01:17:54;;;;;;;;;;;7.20;99.90;;;;;;5058477;28;19916;-74
2023/01/09 01:20:19;;;;;;;;;;;7.20;99.90;;;;;;5048839;28;19920;-74
2023/01/09 01:22:45;;;;;;;;;;;7.30;99.90;;;;;;5047624;28;19956;-74
2023/01/09 01:25:12;;;;;;;;;;;7.20;99.90;;;;;;5047894;28;19952;-74
2023/01/09 01:27:37;;;;;;;;;;;7.20;99.90;;;;;;5040579;28;19913;-75
2023/01/09 01:30:03;;;;;;;;;;;7.20;99.90;;;;;;5043138;28;19938;-74
2023/01/09 01:32:29;;;;;;;;;;;7.20;99.90;;;;;;5037185;28;19941;-73
2023/01/09 01:34:54;;;;;;;;;;;7.20;99.90;;;;;;5039669;28;19968;-76
2023/01/09 01:37:21;;;;;;;;;;;7.20;99.90;;;;;;5048257;28;20605;-74
2023/01/09 01:39:47;;;;;;;;;;;7.30;99.90;;;;;;5044862;28;20410;-74
2023/01/09 01:42:12;;;;;;;;;;;7.30;99.90;;;;;;5048968;28;19909;-73
2023/01/09 01:44:56;;;;;;;;;;;7.40;99.90;;;;;;5038378;28;20394;-75
2023/01/09 01:47:23;;;;;;;;;;;7.40;99.90;;;;;;5047164;28;19913;-73
2023/01/09 01:49:50;;;;;;;;;;;7.40;99.90;;;;;;5044226;28;20012;-74
2023/01/09 01:52:18;;;;;;;;;;;7.40;99.90;;;;;;5042196;28;19917;-74
2023/01/09 01:54:44;;;;;;;;;;;7.30;99.90;;;;;;5034536;28;20102;-72
2023/01/09 01:57:09;;;;;;;;;;;7.30;99.90;;;;;;5042597;28;20072;-72
2023/01/09 01:59:37;;;;;;;;;;;7.30;99.90;;;;;;5040366;28;19958;-75
2023/01/09 02:02:03;;;;;;;;;;;7.20;99.90;;;;;;5038512;28;19916;-72
2023/01/09 02:04:29;;;;;;;;;;;7.20;99.90;;;;;;5037354;28;20008;-75
2023/01/09 02:06:55;;;;;;;;;;;7.20;99.90;;;;;;5034764;28;19913;-73
2023/01/09 02:09:21;;;;;;;;;;;7.10;99.90;;;;;;5038887;28;20371;-73
2023/01/09 02:11:55;;;;;;;;;;;7.00;99.90;;;;;;5044403;28;20348;-72
2023/01/09 02:14:22;;;;;;;;;;;7.10;99.90;;;;;;5037467;28;19935;-73
2023/01/09 02:16:50;;;;;;;;;;;7.00;99.90;;;;;;5037693;28;19909;-73
2023/01/09 02:19:31;;;;;;;;;;;7.00;99.90;;;;;;5044106;28;19908;-75
2023/01/09 02:21:59;;;;;;;;;;;7.00;99.90;;;;;;5050880;28;19958;-72
2023/01/09 02:24:43;;;;;;;;;;;7.00;99.90;;;;;;5039404;28;19909;-73
2023/01/09 02:27:18;;;;;;;;;;;6.90;99.90;;;;;;5040361;28;19920;-74
2023/01/09 02:29:49;;;;;;;;;;;6.90;99.90;;;;;;5046373;28;19935;-74
2023/01/09 02:32:34;;;;;;;;;;;6.90;99.90;;;;;;5036727;28;19920;-72
2023/01/09 02:35:14;;;;;;;;;;;6.90;99.90;;;;;;5044154;28;20213;-73
2023/01/09 02:37:39;;;;;;;;;;;6.90;99.90;;;;;;5049500;28;19924;-74
2023/01/09 02:40:05;;;;;;;;;;;6.90;99.90;;;;;;5043227;28;19963;-72
2023/01/09 02:42:32;;;;;;;;;;;6.90;99.90;;;;;;5049965;28;19916;-74
2023/01/09 02:44:57;;;;;;;;;;;6.90;99.90;;;;;;5047067;28;19909;-75
2023/01/09 02:47:23;;;;;;;;;;;6.90;99.90;;;;;;5049308;28;19917;-75
2023/01/09 02:49:50;;;;;;;;;;;6.90;99.90;;;;;;5042255;28;19956;-72
2023/01/09 02:52:34;;;;;;;;;;;6.80;99.90;;;;;;5044374;28;19913;-73
2023/01/09 02:54:59;;;;;;;;;;;6.80;99.90;;;;;;5044305;28;19952;-72
2023/01/09 02:57:54;;;;;;;;;;;6.80;99.90;;;;;;5048263;28;19944;-73
2023/01/09 03:00:46;;;;;;;;;;;6.70;99.90;;;;;;5007882;28;20466;-73
2023/01/09 03:03:17;;;;;;;;;;;6.80;99.90;;;;;;5022910;28;20019;-74
2023/01/09 03:05:51;;;;;;;;;;;6.70;99.90;;;;;;5035791;28;19921;-74
2023/01/09 03:08:19;;;;;;;;;;;6.70;99.90;;;;;;5047050;28;19919;-73
2023/01/09 03:10:48;;;;;;;;;;;6.60;99.90;;;;;;5044303;28;19909;-73
2023/01/09 03:13:16;;;;;;;;;;;6.50;99.90;;;;;;5041306;28;19919;-74
2023/01/09 03:15:43;;;;;;;;;;;6.50;99.90;;;;;;5044648;28;20010;-73
2023/01/09 03:18:10;;;;;;;;;;;6.50;99.90;;;;;;5047576;28;19909;-73
2023/01/09 03:20:37;;;;;;;;;;;6.50;99.90;;;;;;5036776;28;20380;-72
2023/01/09 03:23:03;;;;;;;;;;;6.40;99.90;;;;;;5040558;28;19909;-70
2023/01/09 03:25:29;;;;;;;;;;;6.50;99.90;;;;;;5038062;28;20278;-72
2023/01/09 03:27:56;;;;;;;;;;;6.50;99.90;;;;;;5034227;28;20386;-73
2023/01/09 03:30:21;;;;;;;;;;;6.50;99.90;;;;;;5043809;28;19999;-74
2023/01/09 03:32:47;;;;;;;;;;;6.50;99.90;;;;;;5046712;28;20054;-74
2023/01/09 03:35:12;;;;;;;;;;;6.40;99.90;;;;;;5045123;28;20294;-74
2023/01/09 03:37:38;;;;;;;;;;;6.40;99.90;;;;;;5035665;28;19966;-73
2023/01/09 03:40:03;;;;;;;;;;;6.40;99.90;;;;;;5035318;28;19939;-73
2023/01/09 03:42:29;;;;;;;;;;;6.50;99.90;;;;;;5042532;28;19909;-72
2023/01/09 03:44:54;;;;;;;;;;;6.50;99.90;;;;;;5038912;28;19991;-73
2023/01/09 03:47:20;;;;;;;;;;;6.50;99.90;;;;;;5039470;28;19921;-73
2023/01/09 03:49:45;;;;;;;;;;;6.60;99.90;;;;;;5042401;28;19924;-73
2023/01/09 03:52:12;;;;;;;;;;;6.60;99.90;;;;;;5038039;28;19960;-73
2023/01/09 03:54:38;;;;;;;;;;;6.70;99.90;;;;;;5039355;28;19913;-72
2023/01/09 03:57:03;;;;;;;;;;;6.70;99.90;;;;;;5034536;28;19909;-73
2023/01/09 03:59:29;;;;;;;;;;;6.70;99.90;;;;;;5036332;28;19913;-74
2023/01/09 04:01:54;;;;;;;;;;;6.80;99.90;;;;;;5037965;28;19917;-75
2023/01/09 04:04:20;;;;;;;;;;;6.80;99.90;;;;;;5030492;28;19923;-75
2023/01/09 04:06:45;;;;;;;;;;;6.80;99.90;;;;;;5041822;28;19944;-74
2023/01/09 04:09:11;;;;;;;;;;;6.80;99.90;;;;;;5037539;28;20639;-73
2023/01/09 04:11:36;;;;;;;;;;;6.80;99.90;;;;;;5032595;28;19909;-74
2023/01/09 04:14:01;;;;;;;;;;;6.70;99.90;;;;;;5037106;28;19925;-73
2023/01/09 04:16:27;;;;;;;;;;;6.80;99.90;;;;;;5048032;28;19975;-74
2023/01/09 04:18:52;;;;;;;;;;;6.80;99.90;;;;;;5038713;28;19909;-73
2023/01/09 04:21:18;;;;;;;;;;;6.90;99.90;;;;;;5039467;28;19974;-74
2023/01/09 04:23:44;;;;;;;;;;;6.90;99.90;;;;;;5045364;28;20430;-72
2023/01/09 04:26:09;;;;;;;;;;;6.90;99.90;;;;;;5040576;28;19912;-74
2023/01/09 04:28:35;;;;;;;;;;;6.90;99.90;;;;;;5032536;28;19909;-74
2023/01/09 04:31:01;;;;;;;;;;;6.90;99.90;;;;;;5046387;28;19923;-74
2023/01/09 04:33:27;;;;;;;;;;;6.90;99.90;;;;;;5045750;28;20286;-73
2023/01/09 04:35:52;;;;;;;;;;;6.90;99.90;;;;;;5043372;28;19905;-73
2023/01/09 04:38:18;;;;;;;;;;;6.90;99.90;;;;;;5053683;28;20499;-73
2023/01/09 04:40:45;;;;;;;;;;;7.00;99.90;;;;;;5064915;28;20128;-74
2023/01/09 04:43:11;;;;;;;;;;;7.00;99.90;;;;;;5064221;28;19917;-73
2023/01/09 04:45:36;;;;;;;;;;;7.10;99.90;;;;;;5055575;28;19916;-75
2023/01/09 04:48:02;;;;;;;;;;;7.00;99.90;;;;;;5057178;28;19909;-75
2023/01/09 04:50:27;;;;;;;;;;;7.10;99.90;;;;;;5060443;28;19941;-75
2023/01/09 04:52:53;;;;;;;;;;;7.00;99.90;;;;;;5052277;28;19945;-74
2023/01/09 04:55:18;;;;;;;;;;;7.00;99.90;;;;;;5059647;28;20295;-74
2023/01/09 04:57:44;;;;;;;;;;;7.10;99.90;;;;;;5054786;28;19909;-75
2023/01/09 05:00:11;;;;;;;;;;;7.10;99.90;;;;;;5059485;28;19928;-75
2023/01/09 05:02:36;;;;;;;;;;;7.10;99.90;;;;;;5055265;28;19909;-75
2023/01/09 05:05:03;;;;;;;;;;;7.10;99.90;;;;;;5043949;28;20287;-71
2023/01/09 05:07:28;;;;;;;;;;;7.10;99.90;;;;;;5044686;28;19951;-73
2023/01/09 05:09:54;;;;;;;;;;;7.10;99.90;;;;;;5042189;28;19917;-74
2023/01/09 05:12:19;;;;;;;;;;;7.10;99.90;;;;;;5035816;28;19959;-75
2023/01/09 05:14:45;;;;;;;;;;;7.10;99.90;;;;;;5033999;28;20024;-75
2023/01/09 05:17:10;;;;;;;;;;;7.20;99.90;;;;;;5044969;28;19940;-75
2023/01/09 05:19:36;;;;;;;;;;;7.20;99.90;;;;;;5041615;28;19959;-74
2023/01/09 05:22:01;;;;;;;;;;;7.20;99.90;;;;;;5037874;28;20517;-75
2023/01/09 05:24:27;;;;;;;;;;;7.20;99.90;;;;;;5043525;28;19940;-75
2023/01/09 05:26:52;;;;;;;;;;;7.20;99.90;;;;;;5047323;28;19920;-76
2023/01/09 05:29:18;;;;;;;;;;;7.20;99.90;;;;;;5042342;28;20169;-76
2023/01/09 05:31:43;;;;;;;;;;;7.20;99.90;;;;;;5045975;28;19909;-77
2023/01/09 05:34:08;;;;;;;;;;;7.30;99.90;;;;;;5031709;28;20030;-72
2023/01/09 05:36:34;;;;;;;;;;;7.30;99.90;;;;;;5042513;28;19917;-74
2023/01/09 05:39:01;;;;;;;;;;;7.30;99.90;;;;;;5045186;28;19952;-72
2023/01/09 05:41:27;;;;;;;;;;;7.30;99.90;;;;;;5047737;28;19913;-73
2023/01/09 05:43:52;;;;;;;;;;;7.30;99.90;;;;;;5041629;28;20291;-74
2023/01/09 05:46:18;;;;;;;;;;;7.40;99.90;;;;;;5043940;28;20358;-76
2023/01/09 05:48:44;;;;;;;;;;;7.40;99.90;;;;;;5039967;28;19908;-74
2023/01/09 05:51:09;;;;;;;;;;;7.40;99.90;;;;;;5035207;28;19917;-73
2023/01/09 05:53:35;;;;;;;;;;;7.40;99.90;;;;;;5034599;28;20003;-74
2023/01/09 05:56:00;;;;;;;;;;;7.50;99.90;;;;;;5039513;28;19913;-73
2023/01/09 05:58:26;;;;;;;;;;;7.40;99.90;;;;;;5038920;28;19920;-73
2023/01/09 06:00:52;;;;;;;;;;;7.40;99.90;;;;;;5044901;28;19921;-75
2023/01/09 06:03:17;;;;;;;;;;;7.40;99.90;;;;;;5046603;28;19940;-73
2023/01/09 06:05:43;;;;;;;;;;;7.40;99.90;;;;;;5051820;28;20492;-75
2023/01/09 06:08:08;;;;;;;;;;;7.50;99.90;;;;;;5050014;28;20419;-75
2023/01/09 06:10:34;;;;;;;;;;;7.50;99.90;;;;;;5047773;28;19909;-72
2023/01/09 06:12:59;;;;;;;;;;;7.50;99.90;;;;;;5059395;28;19964;-77
2023/01/09 06:15:25;;;;;;;;;;;7.50;99.90;;;;;;5073401;28;19917;-75
2023/01/09 06:17:50;;;;;;;;;;;7.40;99.90;;;;;;5071915;28;19901;-73
2023/01/09 06:20:16;;;;;;;;;;;7.50;99.90;;;;;;5068545;28;19909;-74
2023/01/09 06:22:43;;;;;;;;;;;7.50;99.90;;;;;;5049169;28;20425;-73
2023/01/09 06:25:09;;;;;;;;;;;7.60;99.90;;;;;;5048805;28;19908;-74
2023/01/09 06:27:34;;;;;;;;;;;7.60;99.90;;;;;;5045788;28;19920;-74
2023/01/09 06:30:00;;;;;;;;;;;7.60;99.90;;;;;;5045519;28;19917;-73
2023/01/09 06:32:25;;;;;;;;;;;7.60;99.90;;;;;;5044068;28;19992;-73
2023/01/09 06:34:51;;;;;;;;;;;7.60;99.90;;;;;;5048644;28;19978;-74
2023/01/09 06:37:16;;;;;;;;;;;7.60;99.90;;;;;;5047376;28;19916;-75
2023/01/09 06:39:41;;;;;;;;;;;7.70;99.90;;;;;;5048080;28;20501;-75
2023/01/09 06:42:07;;;;;;;;;;;7.70;99.90;;;;;;5045824;28;19942;-74
2023/01/09 06:44:35;;;;;;;;;;;7.80;99.90;;;;;;5049898;28;19912;-72
2023/01/09 06:47:01;;;;;;;;;;;7.80;99.90;;;;;;5036031;28;19966;-75
2023/01/09 06:49:26;;;;;;;;;;;7.80;99.90;;;;;;5042116;28;19913;-74
2023/01/09 06:51:52;;;;;;;;;;;7.80;99.90;;;;;;5042130;28;19913;-74
2023/01/09 06:54:18;;;;;;;;;;;7.90;99.90;;;;;;5041618;28;20458;-74
2023/01/09 06:56:43;;;;;;;;;;;8.00;99.90;;;;;;5036366;28;19909;-74
2023/01/09 06:59:09;;;;;;;;;;;8.00;99.90;;;;;;5041406;28;19909;-77
2023/01/09 07:01:34;;;;;;;;;;;8.00;99.90;;;;;;5044727;28;19943;-72
2023/01/09 07:04:00;;;;;;;;;;;8.00;99.90;;;;;;5040082;28;19917;-73
2023/01/09 07:06:25;;;;;;;;;;;8.00;99.90;;;;;;5042323;28;19979;-75
2023/01/09 07:08:51;;;;;;;;;;;8.10;99.90;;;;;;5028668;28;19913;-75
2023/01/09 07:11:16;;;;;;;;;;;8.20;99.90;;;;;;5034175;28;19909;-74
2023/01/09 07:13:42;;;;;;;;;;;8.20;99.90;;;;;;5042724;28;19920;-76
2023/01/09 07:16:08;;;;;;;;;;;8.30;99.90;;;;;;5035461;28;19909;-75
2023/01/09 07:18:33;;;;;;;;;;;8.30;99.90;;;;;;5036512;28;19944;-74
2023/01/09 07:20:59;;;;;;;;;;;8.30;99.90;;;;;;5041895;28;19944;-76
2023/01/09 07:23:25;;;;;;;;;;;8.40;99.90;;;;;;5037705;28;20422;-70
2023/01/09 07:25:51;;;;;;;;;;;8.30;99.90;;;;;;5044528;28;19913;-73
2023/01/09 07:28:16;;;;;;;;;;;8.50;99.90;;;;;;5043807;28;20082;-75
2023/01/09 07:30:42;;;;;;;;;;;8.40;99.90;;;;;;5035181;28;20037;-74
2023/01/09 07:33:07;;;;;;;;;;;8.50;99.90;;;;;;5036141;28;19909;-73
2023/01/09 07:35:33;;;;;;;;;;;8.60;99.90;;;;;;5031571;28;20553;-74
2023/01/09 07:37:58;;;;;;;;;;;8.60;99.90;;;;;;5043659;28;19909;-76
2023/01/09 07:40:24;;;;;;;;;;;8.60;99.90;;;;;;5044814;28;19909;-74
2023/01/09 07:42:51;;;;;;;;;;;8.60;99.90;;;;;;5036886;28;19945;-73
2023/01/09 07:45:17;;;;;;;;;;;8.80;99.90;;;;;;5033062;28;19913;-76
2023/01/09 07:47:42;;;;;;;;;;;8.80;99.90;;;;;;5035158;28;19908;-75
2023/01/09 07:50:08;;;;;;;;;;;8.90;99.90;;;;;;5039536;28;19944;-73
2023/01/09 07:52:34;;;;;;;;;;;8.90;99.90;;;;;;5026976;28;20410;-75
2023/01/09 07:54:59;;;;;;;;;;;9.00;99.90;;;;;;5034648;28;19939;-75
2023/01/09 07:57:25;;;;;;;;;;;9.00;99.90;;;;;;5044307;28;19944;-74
2023/01/09 07:59:50;;;;;;;;;;;9.00;99.90;;;;;;5042474;28;19967;-74
2023/01/09 08:02:16;;;;;;;;;;;9.10;99.90;;;;;;5023983;28;19945;-74
2023/01/09 08:04:42;;;;;;;;;;;9.10;99.90;;;;;;5042011;28;19935;-76
2023/01/09 08:07:08;;;;;;;;;;;9.20;99.90;;;;;;5032403;28;19916;-74
2023/01/09 08:09:33;;;;;;;;;;;9.30;99.90;;;;;;5032313;28;20315;-72
2023/01/09 08:11:59;;;;;;;;;;;9.30;99.90;;;;;;5036169;28;19913;-74
2023/01/09 08:14:24;;;;;;;;;;;9.30;99.90;;;;;;5025521;28;19970;-74
2023/01/09 08:16:49;;;;;;;;;;;9.30;99.90;;;;;;5033387;28;19913;-74
2023/01/09 08:19:15;;;;;;;;;;;9.40;99.90;;;;;;5038252;28;20372;-74
2023/01/09 08:21:40;;;;;;;;;;;9.40;99.90;;;;;;5043625;28;19917;-73
2023/01/09 08:24:06;;;;;;;;;;;9.30;99.90;;;;;;5042194;28;19956;-75
2023/01/09 08:26:32;;;;;;;;;;;9.30;99.90;;;;;;5035073;28;19913;-72
2023/01/09 08:28:57;;;;;;;;;;;9.30;99.90;;;;;;5035279;28;19943;-75
2023/01/09 08:31:22;;;;;;;;;;;9.40;99.90;;;;;;5039492;28;19964;-77
2023/01/09 08:33:48;;;;;;;;;;;9.40;99.90;;;;;;5036279;28;20127;-74
2023/01/09 08:36:13;;;;;;;;;;;9.30;99.90;;;;;;5043570;28;19916;-75
2023/01/09 08:38:39;;;;;;;;;;;9.30;99.90;;;;;;5044259;28;20011;-75
2023/01/09 08:47:04;;;;;;;;;;;9.30;99.90;;;;;;5034369;28;20418;-75
2023/01/09 08:49:18;;;;;;;;;;;9.50;99.90;;;;;;5038060;28;19920;-75
2023/01/09 08:51:44;;;;;;;;;;;9.60;99.90;;;;;;5038204;28;19909;-76
2023/01/09 08:54:09;;;;;;;;;;;9.60;99.90;;;;;;5040764;28;19917;-74
2023/01/09 08:56:34;;;;;;;;;;;9.50;99.90;;;;;;5042880;28;19909;-75
2023/01/09 08:59:00;;;;;;;;;;;9.60;99.90;;;;;;5050564;28;20359;-74
2023/01/09 09:01:25;;;;;;;;;;;9.70;99.90;;;;;;5042875;28;19909;-73
2023/01/09 09:03:51;;;;;;;;;;;9.50;99.90;;;;;;5038677;28;19920;-74
2023/01/09 09:06:16;;;;;;;;;;;9.50;99.90;;;;;;5037071;28;19944;-75
2023/01/09 09:08:42;;;;;;;;;;;9.40;99.90;;;;;;5040111;28;19912;-75
2023/01/09 09:11:07;;;;;;;;;;;9.30;99.90;;;;;;5037193;28;19933;-74
2023/01/09 09:13:33;;;;;;;;;;;9.30;99.90;;;;;;5046843;28;19956;-75
2023/01/09 09:15:58;;;;;;;;;;;9.30;99.90;;;;;;5036351;28;19971;-80
2023/01/09 09:18:23;;;;;;;;;;;9.20;99.90;;;;;;5042941;28;19913;-75
2023/01/09 09:20:49;;;;;;;;;;;9.00;99.90;;;;;;5047783;28;20430;-76
2023/01/09 09:23:14;;;;;;;;;;;9.00;99.90;;;;;;5038183;28;20469;-74
2023/01/09 09:25:40;;;;;;;;;;;8.90;99.90;;;;;;5042896;28;19913;-75
2023/01/09 09:28:06;;;;;;;;;;;8.90;99.90;;;;;;5040918;28;19986;-76
2023/01/09 09:30:31;;;;;;;;;;;8.90;99.90;;;;;;5045130;28;20007;-75
2023/01/09 09:32:57;;;;;;;;;;;8.90;99.90;;;;;;5040386;28;19956;-75
2023/01/09 09:35:22;;;;;;;;;;;8.80;99.90;;;;;;5040782;28;19943;-75
2023/01/09 09:37:51;;;;;;;;;;;8.80;99.90;;;;;;5042985;28;19975;-75
2023/01/09 09:40:21;;;;;;;;;;;8.80;99.90;;;;;;5040162;28;19924;-75
2023/01/09 09:45:43;;;;;;;;;;;8.90;99.90;;;;;;5042456;28;19916;-76
2023/01/09 09:48:27;;;;;;;;;;;8.80;99.90;;;;;;5037632;28;20007;-75
2023/01/09 09:51:15;;;;;;;;;;;8.80;99.90;;;;;;5045477;28;19916;-76
2023/01/09 09:53:59;;;;;;;;;;;9.00;99.90;;;;;;5041804;28;19909;-75
2023/01/09 09:56:26;;;;;;;;;;;9.00;99.90;;;;;;5034038;28;19912;-76
2023/01/09 09:58:54;;;;;;;;;;;9.00;99.90;;;;;;5039685;28;19913;-76
2023/01/09 10:01:26;;;;;;;;;;;9.10;99.90;;;;;;5038395;28;19945;-75
2023/01/09 10:03:54;;;;;;;;;;;9.10;99.90;;;;;;5030812;28;19924;-75
2023/01/09 10:06:30;;;;;;;;;;;9.20;99.90;;;;;;5034979;28;19913;-74
2023/01/09 10:09:08;;;;;;;;;;;9.20;99.90;;;;;;5037545;28;19995;-76
2023/01/09 10:11:38;;;;;;;;;;;9.10;99.90;;;;;;5044706;28;19940;-74
2023/01/09 10:14:04;;;;;;;;;;;9.10;99.90;;;;;;5032554;28;19919;-75
2023/01/09 10:16:29;;;;;;;;;;;9.00;99.90;;;;;;5042123;28;19995;-75
2023/01/09 10:19:00;;;;;;;;;;;8.80;99.90;;;;;;5041280;28;19913;-75
2023/01/09 10:21:30;;;;;;;;;;;8.70;99.90;;;;;;5045393;28;19962;-76
2023/01/09 10:24:12;;;;;;;;;;;8.70;99.90;;;;;;5040706;28;19914;-76
2023/01/09 10:26:44;;;;;;;;;;;8.70;99.90;;;;;;5035823;28;19913;-76
2023/01/09 10:29:20;;;;;;;;;;;8.90;99.90;;;;;;5040243;28;20000;-76
2023/01/09 10:31:45;;;;;;;;;;;9.00;99.90;;;;;;5036473;28;19909;-74
2023/01/09 10:34:17;;;;;;;;;;;9.10;99.90;;;;;;5038374;28;19921;-77
2023/01/09 10:36:54;;;;;;;;;;;9.20;99.90;;;;;;5038821;28;19909;-76
2023/01/09 10:39:23;;;;;;;;;;;9.30;99.90;;;;;;5045552;28;19970;-77
2023/01/09 10:41:52;;;;;;;;;;;9.30;99.90;;;;;;5036831;28;19917;-76
2023/01/09 10:44:21;;;;;;;;;;;9.40;99.90;;;;;;5039026;28;19920;-77
2023/01/09 10:46:54;;;;;;;;;;;9.40;99.90;;;;;;5041239;28;20746;-76
2023/01/09 10:49:20;;;;;;;;;;;9.50;99.90;;;;;;5056040;28;19936;-75
2023/01/09 10:51:47;;;;;;;;;;;9.50;99.90;;;;;;5059292;28;19923;-76
2023/01/09 10:54:14;;;;;;;;;;;9.40;99.90;;;;;;5049460;28;19924;-75
2023/01/09 10:56:41;;;;;;;;;;;9.40;99.90;;;;;;5043672;28;19909;-75
2023/01/09 10:59:07;;;;;;;;;;;9.40;99.90;;;;;;5038826;28;19912;-75
2023/01/09 11:01:37;;;;;;;;;;;9.40;99.90;;;;;;5031617;28;19909;-74
2023/01/09 11:04:14;;;;;;;;;;;9.40;99.90;;;;;;5037739;28;20375;-72
2023/01/09 11:06:45;;;;;;;;;;;9.30;99.90;;;;;;5042635;28;20003;-76
2023/01/09 11:09:10;;;;;;;;;;;9.30;99.90;;;;;;5038185;28;19913;-75
2023/01/09 11:11:37;;;;;;;;;;;9.30;99.90;;;;;;5033016;28;19943;-75
2023/01/09 11:14:13;;;;;;;;;;;9.20;99.90;;;;;;5039809;28;20535;-78
2023/01/09 11:16:50;;;;;;;;;;;9.10;99.90;;;;;;5044889;28;19916;-74
2023/01/09 11:19:15;;;;;;;;;;;9.20;99.90;;;;;;5046615;28;19916;-76
2023/01/09 11:21:41;;;;;;;;;;;9.30;99.90;;;;;;5044952;28;19912;-76
2023/01/09 11:24:28;;;;;;;;;;;9.40;99.90;;;;;;5042469;28;20299;-76
2023/01/09 11:27:13;;;;;;;;;;;9.60;99.90;;;;;;5041951;28;20465;-79
2023/01/09 11:29:40;;;;;;;;;;;9.60;99.90;;;;;;5041579;28;19941;-75
2023/01/09 11:32:19;;;;;;;;;;;9.70;99.90;;;;;;5040641;28;20345;-77
2023/01/09 11:34:44;;;;;;;;;;;9.60;99.90;;;;;;5043458;28;19913;-76
2023/01/09 11:37:12;;;;;;;;;;;9.50;99.90;;;;;;5038573;28;19959;-76
2023/01/09 11:39:40;;;;;;;;;;;9.50;99.90;;;;;;5037046;28;19913;-76
2023/01/09 11:42:08;;;;;;;;;;;9.30;99.90;;;;;;5037493;28;19919;-75
2023/01/09 11:44:34;;;;;;;;;;;9.30;99.90;;;;;;5036080;28;19962;-75
2023/01/09 11:46:59;;;;;;;;;;;9.30;99.90;;;;;;5031004;28;19909;-76
2023/01/09 11:49:27;;;;;;;;;;;9.30;99.90;;;;;;5040128;28;19908;-74
2023/01/09 11:52:14;;;;;;;;;;;9.30;99.90;;;;;;5044293;28;19913;-75
2023/01/09 11:54:41;;;;;;;;;;;9.30;99.90;;;;;;5041574;28;20008;-76
2023/01/09 11:57:10;;;;;;;;;;;9.40;99.90;;;;;;5036348;28;19909;-76
2023/01/09 11:59:35;;;;;;;;;;;9.60;99.90;;;;;;5040010;28;19909;-75
2023/01/09 12:02:16;;;;;;;;;;;9.60;99.90;;;;;;5047791;28;19915;-75
2023/01/09 12:04:47;;;;;;;;;;;9.50;99.90;;;;;;5039348;28;20123;-76
2023/01/09 12:07:18;;;;;;;;;;;9.50;99.90;;;;;;5038649;28;19921;-75
2023/01/09 12:09:52;;;;;;;;;;;9.60;99.90;;;;;;5036734;28;19916;-74
2023/01/09 12:12:17;;;;;;;;;;;9.60;99.90;;;;;;5039236;28;19913;-75
2023/01/09 12:14:53;;;;;;;;;;;9.70;99.90;;;;;;5030862;28;20337;-75
2023/01/09 12:17:36;;;;;;;;;;;9.70;99.90;;;;;;5037293;28;19913;-74
2023/01/09 12:20:08;;;;;;;;;;;9.60;99.90;;;;;;5043811;28;19962;-76
2023/01/09 12:22:57;;;;;;;;;;;9.60;99.90;;;;;;5038285;28;19909;-76
2023/01/09 12:25:22;;;;;;;;;;;9.60;99.90;;;;;;5032514;28;19940;-75
2023/01/09 12:28:10;;;;;;;;;;;9.60;99.90;;;;;;5039956;28;20472;-75
2023/01/09 12:30:44;;;;;;;;;;;9.60;99.90;;;;;;5048728;28;20369;-76
2023/01/09 12:33:16;;;;;;;;;;;9.60;99.90;;;;;;5044288;28;20307;-74
2023/01/09 12:35:50;;;;;;;;;;;9.50;99.90;;;;;;5043775;28;19928;-74
2023/01/09 12:38:29;;;;;;;;;;;9.40;99.90;;;;;;5047912;28;19967;-76
2023/01/09 12:41:13;;;;;;;;;;;9.40;99.90;;;;;;5044332;28;20442;-76
2023/01/09 12:43:41;;;;;;;;;;;9.30;99.90;;;;;;5042379;28;19919;-77
2023/01/09 12:46:14;;;;;;;;;;;9.20;99.90;;;;;;5049703;28;19964;-75
2023/01/09 12:48:39;;;;;;;;;;;9.10;99.90;;;;;;5044585;28;19915;-76
2023/01/09 12:51:05;;;;;;;;;;;9.10;99.90;;;;;;5052452;28;19956;-74
2023/01/09 12:53:34;;;;;;;;;;;9.00;99.90;;;;;;5052175;28;19913;-73
2023/01/09 12:56:13;;;;;;;;;;;9.00;99.90;;;;;;5059082;28;19912;-73
2023/01/09 12:58:42;;;;;;;;;;;9.00;99.90;;;;;;5059158;28;19909;-75
2023/01/09 13:01:11;;;;;;;;;;;9.00;99.90;;;;;;5055685;28;19924;-76
2023/01/09 13:03:46;;;;;;;;;;;9.00;99.90;;;;;;5052631;28;20308;-77
2023/01/09 13:06:14;;;;;;;;;;;9.00;99.90;;;;;;5060251;28;19968;-78
2023/01/09 13:08:41;;;;;;;;;;;9.10;99.90;;;;;;5060962;28;19909;-77
2023/01/09 13:11:14;;;;;;;;;;;9.00;99.90;;;;;;5052760;28;20603;-78
2023/01/09 13:13:47;;;;;;;;;;;8.80;99.90;;;;;;5047823;28;19936;-79
2023/01/09 13:16:16;;;;;;;;;;;8.80;99.90;;;;;;5053714;28;19913;-75
2023/01/09 13:18:44;;;;;;;;;;;8.80;99.90;;;;;;5043820;28;19948;-77
2023/01/09 13:21:11;;;;;;;;;;;8.90;99.90;;;;;;5043679;28;19909;-78
2023/01/09 13:23:50;;;;;;;;;;;8.80;99.90;;;;;;5039808;28;19921;-77
2023/01/09 13:26:15;;;;;;;;;;;9.10;99.90;;;;;;5046917;28;20011;-78
2023/01/09 13:28:42;;;;;;;;;;;9.30;99.90;;;;;;5040377;28;20008;-78
2023/01/09 13:31:15;;;;;;;;;;;9.20;99.90;;;;;;5049875;28;19917;-77
2023/01/09 13:33:49;;;;;;;;;;;9.10;99.90;;;;;;5045948;28;19959;-75
2023/01/09 13:36:23;;;;;;;;;;;9.00;99.90;;;;;;5048830;28;19919;-80
2023/01/09 13:38:49;;;;;;;;;;;8.80;99.90;;;;;;5048513;28;19921;-77
2023/01/09 13:44:06;;;;;;;;;;;8.80;99.90;;;;;;5041603;28;19940;-77
2023/01/09 13:46:33;;;;;;;;;;;8.70;99.90;;;;;;5037180;28;20315;-77
2023/01/09 13:49:00;;;;;;;;;;;8.80;99.90;;;;;;5047721;28;19935;-79
2023/01/09 13:51:45;;;;;;;;;;;8.90;99.90;;;;;;5047686;28;20000;-78
2023/01/09 13:54:11;;;;;;;;;;;8.80;99.90;;;;;;5005076;28;20217;-77
2023/01/09 13:57:02;;;;;;;;;;;8.60;99.90;;;;;;5048505;28;19912;-75
2023/01/09 13:59:28;;;;;;;;;;;8.60;99.90;;;;;;5053811;28;19915;-75
2023/01/09 14:01:53;;;;;;;;;;;8.60;99.90;;;;;;5055440;28;19996;-76
2023/01/09 14:04:20;;;;;;;;;;;8.60;99.90;;;;;;5038688;28;19936;-76
2023/01/09 14:07:21;;;;;;;;;;;8.60;99.90;;;;;;5048201;28;20004;-72
2023/01/09 14:09:50;;;;;;;;;;;8.50;99.90;;;;;;5014056;28;19913;-76
2023/01/09 14:12:18;;;;;;;;;;;8.50;99.90;;;;;;5051449;28;19897;-78
2023/01/09 14:14:44;;;;;;;;;;;8.40;99.90;;;;;;5055621;28;19917;-78
2023/01/09 14:17:28;;;;;;;;;;;8.40;99.90;;;;;;5061906;28;19897;-76
2023/01/09 14:19:55;;;;;;;;;;;8.50;99.90;;;;;;5046708;28;19916;-78
2023/01/09 14:22:29;;;;;;;;;;;8.50;99.90;;;;;;5056314;28;19929;-75
2023/01/09 14:24:59;;;;;;;;;;;8.50;99.90;;;;;;5058469;28;19913;-76
2023/01/09 14:27:43;;;;;;;;;;;8.60;99.90;;;;;;5059460;28;19926;-76
2023/01/09 14:30:29;;;;;;;;;;;8.60;99.90;;;;;;5060408;28;19901;-76
2023/01/09 14:33:01;;;;;;;;;;;8.60;99.90;;;;;;5063684;28;19916;-75
2023/01/09 14:35:28;;;;;;;;;;;8.60;99.90;;;;;;5059557;28;19940;-76
2023/01/09 14:38:02;;;;;;;;;;;8.60;99.90;;;;;;5057757;28;19915;-73
2023/01/09 14:40:29;;;;;;;;;;;8.50;99.90;;;;;;5059198;28;19967;-75
2023/01/09 14:42:56;;;;;;;;;;;8.50;99.90;;;;;;5054209;28;19960;-76
2023/01/09 14:45:23;;;;;;;;;;;8.50;99.90;;;;;;5051620;28;19912;-75
2023/01/09 14:47:52;;;;;;;;;;;8.50;99.90;;;;;;5053551;28;19945;-75
2023/01/09 14:50:25;;;;;;;;;;;8.50;99.90;;;;;;5049935;28;19912;-74
2023/01/09 14:52:58;;;;;;;;;;;8.50;99.90;;;;;;5033056;28;19920;-75